Time;durP1;ratioP1;P1;durP2;ratioP2;P2;SDS_P1;SDS_P2;PMS_P1;PMS_P2;Temp;Humidity;BMP_temperature;BMP_pressure;BME280_temperature;BME280_humidity;BME280_pressure;Samples;Min_cycle;Max_cycle;Signal;HPM_P1;HPM_P2
2022/03/03 00:00:41;;;;;;;24.50;10.30;;;;;;;-0.47;84.91;100401.74;104713;1271;72520;-70
2022/03/03 00:03:28;;;;;;;22.70;10.40;;;;;;;-0.51;85.49;100399.40;105181;1273;68234;-71
2022/03/03 00:06:16;;;;;;;22.30;10.00;;;;;;;-0.58;85.77;100401.83;104869;1271;71662;-71
2022/03/03 00:09:05;;;;;;;30.90;11.80;;;;;;;-0.62;86.13;100404.55;105119;1271;59310;-70
2022/03/03 00:11:52;;;;;;;28.70;13.30;;;;;;;-0.63;86.35;100405.29;104715;1274;59288;-70
2022/03/03 00:14:40;;;;;;;36.00;14.90;;;;;;;-0.63;86.33;100401.80;104900;1271;71515;-71
2022/03/03 00:17:27;;;;;;;33.90;14.10;;;;;;;-0.59;86.42;100399.59;104967;1274;68770;-70
2022/03/03 00:20:16;;;;;;;31.50;13.00;;;;;;;-0.56;86.75;100398.31;104906;1271;72032;-70
2022/03/03 00:23:03;;;;;;;33.10;12.90;;;;;;;-0.54;86.54;100394.59;104206;1274;1003607;-71
2022/03/03 00:25:51;;;;;;;32.80;11.10;;;;;;;-0.55;86.06;100388.35;104762;1271;59353;-70
2022/03/03 00:28:39;;;;;;;27.60;11.00;;;;;;;-0.53;86.33;100390.21;104951;1271;71745;-71
2022/03/03 00:31:26;;;;;;;30.10;10.50;;;;;;;-0.52;86.45;100393.33;105229;1271;67924;-71
2022/03/03 00:34:17;;;;;;;26.40;10.20;;;;;;;-0.51;86.50;100387.36;104877;1273;74529;-71
2022/03/03 00:37:08;;;;;;;22.60;9.80;;;;;;;-0.52;86.57;100381.79;104736;1271;59323;-71
2022/03/03 00:39:56;;;;;;;21.30;8.90;;;;;;;-0.48;86.31;100388.69;104271;1273;1003114;-71
2022/03/03 00:42:44;;;;;;;23.60;9.60;;;;;;;-0.49;86.54;100385.73;104156;1274;1003100;-71
2022/03/03 00:45:37;;;;;;;25.10;9.70;;;;;;;-0.49;86.37;100387.13;104959;1273;66880;-71
2022/03/03 00:48:28;;;;;;;29.10;11.50;;;;;;;-0.50;86.43;100376.70;104974;1271;73160;-71
2022/03/03 00:51:15;;;;;;;29.80;11.50;;;;;;;-0.50;86.21;100371.48;104749;1271;59420;-71
2022/03/03 00:54:06;;;;;;;28.70;11.70;;;;;;;-0.51;86.21;100368.38;105073;1271;61115;-71
2022/03/03 00:56:53;;;;;;;28.90;11.20;;;;;;;-0.49;86.13;100370.40;105059;1271;72685;-71
2022/03/03 00:59:41;;;;;;;25.30;9.70;;;;;;;-0.44;86.21;100369.59;105153;1271;68032;-71
2022/03/03 01:02:35;;;;;;;23.60;10.80;;;;;;;-0.41;86.48;100378.53;105181;1271;72943;-71
2022/03/03 01:05:22;;;;;;;23.10;10.10;;;;;;;-0.41;86.13;100374.70;105000;1271;59313;-71
2022/03/03 01:08:15;;;;;;;26.30;10.60;;;;;;;-0.40;86.24;100376.41;105160;1274;61572;-71
2022/03/03 01:11:05;;;;;;;23.60;9.50;;;;;;;-0.38;86.25;100369.42;104034;1273;1003257;-71
2022/03/03 01:13:52;;;;;;;21.70;9.40;;;;;;;-0.40;86.35;100369.63;104933;1271;68246;-71
2022/03/03 01:16:40;;;;;;;19.20;8.70;;;;;;;-0.47;86.24;100357.80;104174;1274;1003173;-71
2022/03/03 01:19:28;;;;;;;20.20;9.10;;;;;;;-0.49;86.45;100364.66;104857;1273;59212;-71
2022/03/03 01:22:16;;;;;;;20.50;8.40;;;;;;;-0.54;86.79;100363.73;104378;1271;1003143;-71
2022/03/03 01:25:06;;;;;;;19.90;8.40;;;;;;;-0.59;86.75;100367.35;105056;1271;73068;-70
2022/03/03 01:27:53;;;;;;;19.70;7.50;;;;;;;-0.63;87.05;100357.36;105020;1271;66650;-70
2022/03/03 01:30:40;;;;;;;23.60;9.80;;;;;;;-0.62;87.30;100364.13;104313;1271;1003698;-71
2022/03/03 01:33:28;;;;;;;30.40;12.20;;;;;;;-0.61;87.15;100361.15;105154;1271;59612;-71
2022/03/03 01:36:15;;;;;;;28.20;11.10;;;;;;;-0.58;87.28;100359.13;105004;1271;59406;-71
2022/03/03 01:39:04;;;;;;;34.30;11.70;;;;;;;-0.52;87.37;100358.98;105381;1271;71873;-71
2022/03/03 01:41:55;;;;;;;28.90;10.80;;;;;;;-0.50;87.41;100365.89;104940;1274;66694;-72
2022/03/03 01:44:47;;;;;;;24.30;10.10;;;;;;;-0.48;87.44;100366.02;105079;1274;72892;-72
2022/03/03 01:47:36;;;;;;;20.80;8.00;;;;;;;-0.48;87.18;100366.35;104919;1271;59357;-71
2022/03/03 01:50:25;;;;;;;22.40;8.90;;;;;;;-0.50;87.03;100353.17;104621;1273;59343;-71
2022/03/03 01:53:13;;;;;;;18.40;7.50;;;;;;;-0.54;87.59;100345.96;105003;1270;74056;-71
2022/03/03 01:56:01;;;;;;;20.00;7.60;;;;;;;-0.56;87.37;100356.46;105112;1271;68343;-71
2022/03/03 01:58:50;;;;;;;18.40;7.70;;;;;;;-0.59;87.50;100355.49;104873;1274;72707;-71
2022/03/03 02:01:37;;;;;;;19.30;8.20;;;;;;;-0.62;87.39;100354.70;104611;1271;1003080;-71
2022/03/03 02:04:25;;;;;;;19.30;7.40;;;;;;;-0.61;87.70;100350.15;104912;1274;59339;-71
2022/03/03 02:07:12;;;;;;;18.90;7.10;;;;;;;-0.62;87.66;100354.18;104198;1271;1003093;-71
2022/03/03 02:10:03;;;;;;;21.30;8.70;;;;;;;-0.65;87.89;100356.38;104969;1274;68136;-71
2022/03/03 02:12:51;;;;;;;22.90;9.00;;;;;;;-0.65;87.83;100354.80;104858;1274;70885;-71
2022/03/03 02:15:38;;;;;;;37.50;14.30;;;;;;;-0.62;88.03;100351.40;104763;1277;59556;-71
2022/03/03 02:18:25;;;;;;;28.50;12.00;;;;;;;-0.62;87.98;100347.04;104592;1274;60523;-71
2022/03/03 02:21:15;;;;;;;24.40;9.00;;;;;;;-0.63;87.88;100351.43;103858;1274;1003943;-71
2022/03/03 02:24:03;;;;;;;22.20;9.50;;;;;;;-0.65;88.22;100351.64;104483;1274;68113;-71
2022/03/03 02:26:51;;;;;;;22.20;8.50;;;;;;;-0.61;87.96;100355.02;104612;1274;76379;-71
2022/03/03 02:29:39;;;;;;;20.30;8.20;;;;;;;-0.61;87.72;100352.08;104793;1274;59417;-71
2022/03/03 02:32:30;;;;;;;18.10;7.50;;;;;;;-0.59;88.06;100346.95;103866;1277;1015978;-70
2022/03/03 02:35:20;;;;;;;15.60;6.70;;;;;;;-0.60;87.93;100335.50;104586;1277;71300;-69
2022/03/03 02:38:07;;;;;;;18.20;7.60;;;;;;;-0.63;87.72;100334.70;104959;1277;68255;-70
2022/03/03 02:40:55;;;;;;;22.50;8.50;;;;;;;-0.65;87.87;100332.84;104659;1274;74368;-71
2022/03/03 02:43:42;;;;;;;21.30;8.20;;;;;;;-0.64;87.74;100329.32;104953;1271;59310;-72
2022/03/03 02:46:30;;;;;;;22.30;8.50;;;;;;;-0.64;88.06;100320.08;105093;1271;59381;-70
2022/03/03 02:49:17;;;;;;;24.00;8.70;;;;;;;-0.64;88.29;100321.14;104174;1273;1003287;-71
2022/03/03 02:52:05;;;;;;;24.70;9.10;;;;;;;-0.68;88.20;100319.84;105045;1273;65814;-70
2022/03/03 02:54:52;;;;;;;23.70;9.70;;;;;;;-0.71;88.45;100315.90;104695;1271;74260;-70
2022/03/03 02:57:55;;;;;;;24.90;8.80;;;;;;;-0.72;88.41;100308.63;104916;1271;59269;-69
2022/03/03 03:00:43;;;;;;;24.00;8.80;;;;;;;-0.72;88.55;100306.70;104723;1271;292388;-70
2022/03/03 03:03:34;;;;;;;20.40;7.60;;;;;;;-0.72;88.73;100301.83;104924;1271;73121;-70
2022/03/03 03:06:22;;;;;;;22.30;8.40;;;;;;;-0.77;88.76;100303.52;104695;1274;67266;-70
2022/03/03 03:09:09;;;;;;;16.00;6.70;;;;;;;-0.80;88.70;100295.41;104980;1271;73248;-70
2022/03/03 03:11:56;;;;;;;15.30;6.20;;;;;;;-0.83;89.17;100284.00;104606;1273;59356;-70
2022/03/03 03:14:44;;;;;;;16.50;6.80;;;;;;;-0.85;89.49;100281.95;105078;1271;60518;-71
2022/03/03 03:17:31;;;;;;;17.10;7.20;;;;;;;-0.88;89.42;100283.09;104837;1274;72914;-70
2022/03/03 03:20:19;;;;;;;19.60;7.10;;;;;;;-0.92;89.40;100282.13;104906;1274;70779;-70
2022/03/03 03:23:08;;;;;;;21.30;7.50;;;;;;;-0.98;89.37;100270.66;104597;1274;74765;-70
2022/03/03 03:25:58;;;;;;;18.10;7.50;;;;;;;-1.01;89.59;100269.16;105024;1271;59388;-70
2022/03/03 03:28:45;;;;;;;20.10;8.50;;;;;;;-1.07;89.26;100264.08;104832;1271;59748;-70
2022/03/03 03:31:32;;;;;;;41.10;16.70;;;;;;;-1.10;89.94;100259.66;105109;1271;72494;-70
2022/03/03 03:34:19;;;;;;;44.70;17.30;;;;;;;-1.14;89.78;100261.99;104322;1271;1003184;-70
2022/03/03 03:37:06;;;;;;;32.30;14.40;;;;;;;-1.12;90.24;100264.56;105051;1271;71703;-70
2022/03/03 03:39:53;;;;;;;33.40;13.60;;;;;;;-1.10;90.22;100259.46;104965;1271;59280;-72
2022/03/03 03:42:41;;;;;;;38.70;13.70;;;;;;;-1.08;90.50;100257.33;104782;1271;59702;-71
2022/03/03 03:45:28;;;;;;;39.10;13.50;;;;;;;-1.08;90.60;100256.27;105108;1271;70389;-71
2022/03/03 03:48:15;;;;;;;35.50;13.10;;;;;;;-1.13;90.56;100256.58;104797;1271;69681;-71
2022/03/03 03:51:03;;;;;;;30.90;10.50;;;;;;;-1.18;90.95;100257.24;105270;1273;73287;-72
2022/03/03 03:53:50;;;;;;;34.50;11.70;;;;;;;-1.24;90.74;100249.02;105260;1271;59396;-70
2022/03/03 03:56:38;;;;;;;25.20;10.70;;;;;;;-1.30;91.68;100240.30;104700;1271;60661;-73
2022/03/03 03:59:27;;;;;;;27.20;10.80;;;;;;;-1.36;91.98;100240.47;104741;1271;72790;-70
2022/03/03 04:02:15;;;;;;;24.40;9.60;;;;;;;-1.39;92.49;100246.45;105013;1271;67053;-70
2022/03/03 04:05:03;;;;;;;24.80;9.80;;;;;;;-1.42;92.58;100247.04;105179;1271;70807;-70
2022/03/03 04:07:51;;;;;;;23.90;8.80;;;;;;;-1.44;92.81;100245.00;104940;1271;59325;-70
2022/03/03 04:10:40;;;;;;;25.10;9.20;;;;;;;-1.43;93.34;100240.11;104962;1271;60247;-69
2022/03/03 04:13:28;;;;;;;23.90;7.90;;;;;;;-1.43;93.41;100236.08;104877;1271;72458;-69
2022/03/03 04:16:15;;;;;;;21.20;7.90;;;;;;;-1.41;93.78;100233.63;105076;1271;68092;-70
2022/03/03 04:19:03;;;;;;;17.60;7.20;;;;;;;-1.38;94.46;100237.38;104888;1271;72837;-70
2022/03/03 04:21:51;;;;;;;19.20;7.50;;;;;;;-1.37;94.62;100236.67;105056;1271;59298;-69
2022/03/03 04:24:39;;;;;;;19.20;7.60;;;;;;;-1.36;94.09;100241.34;105079;1271;60747;-70
2022/03/03 04:27:26;;;;;;;19.80;6.90;;;;;;;-1.34;94.30;100244.23;104833;1271;72135;-70
2022/03/03 04:30:13;;;;;;;25.10;9.00;;;;;;;-1.33;94.39;100241.08;104866;1271;66785;-71
2022/03/03 04:33:04;;;;;;;23.60;9.10;;;;;;;-1.31;94.41;100236.50;105299;1271;72896;-71
2022/03/03 04:35:53;;;;;;;25.20;9.30;;;;;;;-1.25;94.43;100233.21;103942;1271;1003289;-71
2022/03/03 04:38:41;;;;;;;22.50;7.90;;;;;;;-1.19;94.73;100227.33;105087;1271;60463;-71
2022/03/03 04:41:28;;;;;;;25.00;8.40;;;;;;;-1.17;94.72;100227.09;105419;1274;71150;-72
2022/03/03 04:44:15;;;;;;;20.40;7.80;;;;;;;-1.13;94.72;100226.80;104897;1274;1002746;-72
2022/03/03 04:47:02;;;;;;;20.30;7.20;;;;;;;-1.11;94.75;100230.23;104632;1274;72938;-71
2022/03/03 04:49:50;;;;;;;21.50;7.90;;;;;;;-1.09;94.68;100233.14;105105;1274;59323;-72
2022/03/03 04:52:37;;;;;;;20.40;7.70;;;;;;;-1.07;94.54;100232.73;104807;1274;59392;-72
2022/03/03 04:55:23;;;;;;;19.30;6.90;;;;;;;-1.06;94.60;100233.41;104674;1279;71533;-73
2022/03/03 04:58:11;;;;;;;16.50;6.00;;;;;;;-1.08;94.92;100236.23;104720;1280;66852;-71
2022/03/03 05:00:57;;;;;;;16.50;6.50;;;;;;;-1.11;94.45;100236.85;104773;1279;73329;-72
2022/03/03 05:03:46;;;;;;;18.30;7.00;;;;;;;-1.13;94.53;100237.25;104448;1279;59791;-70
2022/03/03 05:06:33;;;;;;;24.00;8.40;;;;;;;-1.14;94.43;100241.66;104387;1280;60427;-71
2022/03/03 05:09:20;;;;;;;22.10;8.60;;;;;;;-1.12;94.73;100240.20;103718;1279;1003633;-71
2022/03/03 05:12:08;;;;;;;23.00;8.30;;;;;;;-1.11;94.91;100238.05;104646;1279;67023;-73
2022/03/03 05:14:56;;;;;;;23.80;8.90;;;;;;;-1.09;94.52;100239.23;104423;1279;71786;-71
2022/03/03 05:17:45;;;;;;;21.00;8.10;;;;;;;-1.07;94.60;100242.83;104806;1277;59496;-73
2022/03/03 05:20:34;;;;;;;22.90;9.20;;;;;;;-1.05;94.55;100248.71;103965;1276;1003919;-71
2022/03/03 05:23:20;;;;;;;25.80;8.90;;;;;;;-1.04;94.52;100247.63;104582;1276;71284;-72
2022/03/03 05:26:07;;;;;;;22.60;8.80;;;;;;;-0.99;94.42;100253.59;104672;1273;68097;-71
2022/03/03 05:28:55;;;;;;;23.70;8.40;;;;;;;-0.95;94.26;100254.71;105144;1273;71746;-72
2022/03/03 05:31:42;;;;;;;22.60;8.20;;;;;;;-0.94;94.25;100252.25;105149;1271;59359;-72
2022/03/03 05:34:29;;;;;;;20.30;7.80;;;;;;;-0.94;94.38;100249.63;105273;1271;59473;-72
2022/03/03 05:37:24;;;;;;;22.00;8.20;;;;;;;-0.97;94.22;100246.77;104456;1271;1004347;-72
2022/03/03 05:40:12;;;;;;;22.10;8.10;;;;;;;-0.99;94.09;100249.92;105208;1271;68167;-70
2022/03/03 05:42:59;;;;;;;26.20;8.30;;;;;;;-1.00;94.08;100235.88;105220;1271;72505;-72
2022/03/03 05:45:48;;;;;;;20.20;7.10;;;;;;;-0.99;94.21;100235.15;105555;1270;59386;-72
2022/03/03 05:48:38;;;;;;;21.40;8.80;;;;;;;-0.98;93.98;100239.63;105490;1271;60472;-74
2022/03/03 05:51:27;;;;;;;22.90;7.80;;;;;;;-0.95;93.93;100242.88;104887;1271;71264;-73
2022/03/03 05:54:15;;;;;;;26.50;9.40;;;;;;;-0.89;93.75;100256.28;105305;1274;67020;-72
2022/03/03 05:57:17;;;;;;;23.70;9.20;;;;;;;-0.83;93.72;100263.63;104958;1274;70583;-73
2022/03/03 06:00:12;;;;;;;22.00;7.90;;;;;;;-0.80;93.47;100279.20;105446;1274;59286;-73
2022/03/03 06:03:02;;;;;;;25.30;10.20;;;;;;;-0.78;93.26;100295.73;105340;1271;60389;-73
2022/03/03 06:05:53;;;;;;;21.60;8.20;;;;;;;-0.77;93.23;100284.52;104579;1271;1002588;-72
2022/03/03 06:09:08;;;;;;;21.20;8.20;;;;;;;-0.72;93.27;100287.02;104996;1271;67964;-74
2022/03/03 06:12:35;;;;;;;21.70;7.90;;;;;;;-0.69;93.19;100291.09;105584;1271;73028;-73
2022/03/03 06:15:23;;;;;;;18.90;7.00;;;;;;;-0.66;93.10;100298.70;104872;1277;59230;-73
2022/03/03 06:18:12;;;;;;;17.70;6.40;;;;;;;-0.63;92.97;100296.36;104709;1277;60500;-73
2022/03/03 06:21:00;;;;;;;20.80;7.20;;;;;;;-0.61;92.89;100295.96;104902;1280;72491;-73
2022/03/03 06:23:49;;;;;;;20.30;7.50;;;;;;;-0.61;92.67;100288.98;104759;1277;66882;-73
2022/03/03 06:26:38;;;;;;;27.40;9.20;;;;;;;-0.58;92.74;100290.80;104105;1277;1003536;-73
2022/03/03 06:29:32;;;;;;;17.50;7.20;;;;;;;-0.55;92.94;100290.20;104502;1277;59413;-73
2022/03/03 06:32:19;;;;;;;23.30;9.40;;;;;;;-0.55;92.99;100293.16;104707;1277;59413;-72
2022/03/03 06:35:06;;;;;;;25.40;10.20;;;;;;;-0.53;92.92;100288.77;104867;1277;71533;-72
2022/03/03 06:37:54;;;;;;;27.30;10.50;;;;;;;-0.48;92.99;100288.63;104851;1277;66859;-71
2022/03/03 06:40:41;;;;;;;26.20;10.00;;;;;;;-0.37;92.77;100299.10;104748;1280;72851;-70
2022/03/03 06:43:29;;;;;;;24.30;8.70;;;;;;;-0.30;92.33;100292.81;104825;1277;59333;-72
2022/03/03 06:46:18;;;;;;;20.90;8.40;;;;;;;-0.27;91.97;100288.71;104706;1277;60270;-71
2022/03/03 06:49:06;;;;;;;20.00;7.60;;;;;;;-0.26;91.81;100287.30;104868;1277;72912;-72
2022/03/03 06:52:00;;;;;;;20.60;8.80;;;;;;;-0.26;91.74;100281.70;105000;1274;68227;-72
2022/03/03 06:54:51;;;;;;;19.90;7.80;;;;;;;-0.26;91.79;100293.57;104974;1274;73899;-70
2022/03/03 06:57:41;;;;;;;20.60;8.40;;;;;;;-0.25;91.87;100303.98;105146;1274;59340;-70
2022/03/03 07:00:35;;;;;;;20.60;8.30;;;;;;;-0.25;91.80;100305.06;105101;1274;59765;-72
2022/03/03 07:03:25;;;;;;;23.60;9.20;;;;;;;-0.25;91.97;100302.77;105438;1273;73993;-70
2022/03/03 07:06:13;;;;;;;25.50;9.90;;;;;;;-0.20;91.77;100306.80;105044;1274;66821;-72
2022/03/03 07:09:02;;;;;;;24.10;9.00;;;;;;;-0.13;91.70;100306.61;104783;1274;72860;-71
2022/03/03 07:11:51;;;;;;;24.20;8.80;;;;;;;-0.07;91.48;100303.64;105126;1274;59320;-73
2022/03/03 07:14:38;;;;;;;26.40;9.20;;;;;;;0.00;91.71;100299.05;105190;1273;59520;-74
2022/03/03 07:17:49;;;;;;;23.30;8.40;;;;;;;0.11;91.26;100293.83;104821;1274;72823;-72
2022/03/03 07:20:54;;;;;;;18.90;7.20;;;;;;;0.15;90.64;100285.00;105117;1274;68776;-73
2022/03/03 07:24:02;;;;;;;20.90;8.20;;;;;;;0.18;90.63;100285.09;105200;1273;74902;-73
2022/03/03 07:26:59;;;;;;;21.30;8.10;;;;;;;0.25;90.72;100293.43;105655;1273;59385;-74
2022/03/03 07:30:05;;;;;;;22.60;9.00;;;;;;;0.30;90.36;100291.16;105324;1274;60430;-74
2022/03/03 07:33:06;;;;;;;21.40;7.40;;;;;;;0.32;90.27;100291.80;105161;1274;72313;-73
2022/03/03 07:35:57;;;;;;;22.00;8.40;;;;;;;0.35;90.32;100295.02;105194;1274;66789;-74
2022/03/03 07:38:57;;;;;;;29.90;9.80;;;;;;;0.39;90.34;100298.73;105350;1274;72874;-74
2022/03/03 07:41:49;;;;;;;23.40;9.00;;;;;;;0.43;90.01;100290.57;105374;1274;59427;-73
2022/03/03 07:44:36;;;;;;;27.30;9.30;;;;;;;0.47;90.05;100289.23;105561;1271;60417;-73
2022/03/03 07:47:27;;;;;;;27.40;10.00;;;;;;;0.53;89.93;100296.73;105420;1271;73029;-72
2022/03/03 07:50:15;;;;;;;27.80;9.70;;;;;;;0.57;89.87;100296.75;105312;1271;66983;-73
2022/03/03 07:53:11;;;;;;;27.70;9.70;;;;;;;0.62;89.60;100288.05;104980;1271;72739;-73
2022/03/03 07:56:03;;;;;;;24.60;8.30;;;;;;;0.67;89.65;100282.96;105222;1270;59243;-74
2022/03/03 07:59:04;;;;;;;21.80;8.40;;;;;;;0.73;89.54;100289.95;105329;1273;60461;-74
2022/03/03 08:01:56;;;;;;;24.30;8.30;;;;;;;0.78;89.34;100289.77;105449;1274;72020;-74
2022/03/03 08:04:49;;;;;;;24.20;8.10;;;;;;;0.86;89.11;100292.31;105210;1271;67878;-73
2022/03/03 08:07:46;;;;;;;21.40;8.20;;;;;;;0.90;89.05;100291.64;105189;1271;71462;-73
2022/03/03 08:10:35;;;;;;;25.80;7.60;;;;;;;0.99;88.63;100292.92;105355;1272;59270;-73
2022/03/03 08:13:26;;;;;;;25.60;9.30;;;;;;;1.05;88.38;100286.77;104787;1271;59683;-73
2022/03/03 08:16:13;;;;;;;24.50;9.60;;;;;;;1.15;88.34;100293.42;105166;1271;71089;-72
2022/03/03 08:19:02;;;;;;;31.30;10.10;;;;;;;1.26;87.99;100301.95;105255;1274;68412;-72
2022/03/03 08:21:51;;;;;;;22.60;8.50;;;;;;;1.34;87.63;100298.49;105151;1274;72870;-73
2022/03/03 08:24:43;;;;;;;26.50;9.70;;;;;;;1.43;87.28;100293.83;105315;1271;59297;-72
2022/03/03 08:27:31;;;;;;;24.70;8.50;;;;;;;1.51;86.67;100295.11;104914;1274;60075;-73
2022/03/03 08:30:24;;;;;;;25.80;9.00;;;;;;;1.57;86.59;100297.70;104436;1274;1003374;-73
2022/03/03 08:33:40;;;;;;;20.90;8.60;;;;;;;1.62;86.38;100302.08;105154;1274;68084;-72
2022/03/03 08:36:57;;;;;;;23.10;8.60;;;;;;;1.67;85.96;100308.17;104872;1273;1002918;-73
2022/03/03 08:39:46;;;;;;;25.70;9.40;;;;;;;1.74;86.00;100307.57;105173;1274;59423;-75
2022/03/03 08:42:43;;;;;;;32.90;14.90;;;;;;;1.81;85.89;100312.58;105165;1274;60589;-74
2022/03/03 08:45:34;;;;;;;27.60;10.10;;;;;;;1.85;85.49;100316.05;105242;1271;72720;-73
2022/03/03 08:48:26;;;;;;;23.10;9.40;;;;;;;1.88;84.95;100314.91;104996;1271;66868;-74
2022/03/03 08:51:16;;;;;;;27.40;9.50;;;;;;;1.90;84.83;100306.29;105509;1271;71877;-74
2022/03/03 08:54:03;;;;;;;21.50;8.40;;;;;;;1.94;84.82;100297.37;104944;1277;59526;-74
2022/03/03 08:56:51;;;;;;;25.30;9.40;;;;;;;2.00;84.68;100302.20;104925;1276;59378;-74
2022/03/03 08:59:38;;;;;;;19.70;8.10;;;;;;;2.10;84.34;100299.20;105138;1277;72508;-73
2022/03/03 09:02:28;;;;;;;19.50;7.10;;;;;;;2.15;83.96;100308.80;104621;1276;68257;-74
2022/03/03 09:05:20;;;;;;;24.90;8.80;;;;;;;2.20;83.80;100311.95;105013;1276;73059;-74
2022/03/03 09:08:07;;;;;;;25.00;9.50;;;;;;;2.21;83.76;100301.23;104885;1276;59859;-75
2022/03/03 09:10:55;;;;;;;20.40;9.10;;;;;;;2.25;83.73;100297.04;104587;1278;60554;-73
2022/03/03 09:13:43;;;;;;;22.70;8.30;;;;;;;2.36;83.18;100305.89;104793;1277;71176;-73
2022/03/03 09:16:34;;;;;;;23.30;8.30;;;;;;;2.40;82.73;100309.45;104855;1277;67754;-73
2022/03/03 09:19:22;;;;;;;21.90;8.30;;;;;;;2.47;82.55;100305.10;104853;1276;70612;-72
2022/03/03 09:22:10;;;;;;;21.40;7.90;;;;;;;2.57;82.51;100303.85;104529;1277;59377;-72
2022/03/03 09:24:58;;;;;;;22.20;8.30;;;;;;;2.69;82.20;100309.80;104717;1272;60710;-73
2022/03/03 09:27:46;;;;;;;20.30;8.40;;;;;;;2.73;81.20;100308.77;105182;1271;72408;-72
2022/03/03 09:30:35;;;;;;;22.70;8.90;;;;;;;2.77;81.32;100314.23;105255;1271;67169;-73
2022/03/03 09:33:24;;;;;;;19.00;7.90;;;;;;;2.83;81.17;100316.08;105253;1271;73556;-73
2022/03/03 09:36:11;;;;;;;21.70;8.20;;;;;;;2.91;80.72;100314.88;105425;1271;59405;-72
2022/03/03 09:38:58;;;;;;;22.40;8.70;;;;;;;2.99;80.26;100317.52;105013;1271;60950;-72
2022/03/03 09:41:46;;;;;;;21.50;7.50;;;;;;;3.09;79.81;100312.35;105562;1271;73065;-72
2022/03/03 09:44:36;;;;;;;22.70;8.10;;;;;;;3.12;79.37;100318.73;105329;1271;67949;-73
2022/03/03 09:47:23;;;;;;;26.10;9.60;;;;;;;3.17;79.27;100322.02;105094;1271;72990;-72
2022/03/03 09:50:11;;;;;;;24.70;8.90;;;;;;;3.23;79.23;100323.15;105016;1271;59842;-73
2022/03/03 09:53:06;;;;;;;21.70;9.50;;;;;;;3.41;78.65;100318.00;105336;1271;59789;-73
2022/03/03 09:55:56;;;;;;;19.00;7.50;;;;;;;4.24;77.71;100313.17;105000;1271;70968;-73
2022/03/03 09:58:43;;;;;;;24.10;10.50;;;;;;;4.36;75.91;100314.18;105386;1272;66927;-72
2022/03/03 10:01:32;;;;;;;25.60;9.90;;;;;;;4.31;75.22;100313.19;105236;1271;72829;-72
2022/03/03 10:04:23;;;;;;;23.90;10.30;;;;;;;4.23;74.79;100312.17;104974;1271;59422;-73
2022/03/03 10:07:11;;;;;;;22.00;9.90;;;;;;;4.40;74.88;100315.21;105459;1271;61554;-73
2022/03/03 10:09:59;;;;;;;23.60;9.50;;;;;;;5.00;73.55;100313.20;105087;1271;71602;-72
2022/03/03 10:12:55;;;;;;;21.30;9.30;;;;;;;5.47;71.32;100306.05;105308;1271;66672;-71
2022/03/03 10:15:49;;;;;;;20.70;8.50;;;;;;;5.52;70.73;100304.18;105239;1271;71530;-72
2022/03/03 10:18:37;;;;;;;18.70;8.40;;;;;;;5.53;69.99;100309.44;105572;1271;59425;-73
2022/03/03 10:21:28;;;;;;;22.20;8.50;;;;;;;5.54;69.76;100305.85;104888;1274;59452;-73
2022/03/03 10:24:33;;;;;;;17.40;7.90;;;;;;;5.52;68.91;100308.39;105287;1271;72453;-73
2022/03/03 10:27:20;;;;;;;17.00;7.90;;;;;;;5.55;68.96;100304.73;105064;1271;68634;-73
2022/03/03 10:30:09;;;;;;;16.80;8.20;;;;;;;5.57;67.53;100305.83;105466;1271;71913;-74
2022/03/03 10:33:25;;;;;;;19.30;8.00;;;;;;;5.86;67.64;100305.17;105273;1271;59296;-73
2022/03/03 10:36:26;;;;;;;16.10;7.70;;;;;;;7.15;64.49;100291.73;105234;1271;59726;-73
2022/03/03 10:39:15;;;;;;;16.40;6.50;;;;;;;7.26;62.32;100296.93;105148;1274;73040;-72
2022/03/03 10:42:12;;;;;;;17.30;7.70;;;;;;;8.67;60.10;100291.35;104935;1274;66520;-74
2022/03/03 10:45:12;;;;;;;15.30;7.70;;;;;;;10.51;53.66;100284.36;104963;1271;72989;-75
2022/03/03 10:48:04;;;;;;;15.60;7.70;;;;;;;12.63;49.62;100271.17;105435;1271;59317;-74
2022/03/03 10:50:54;;;;;;;15.50;6.90;;;;;;;14.58;42.64;100258.45;105249;1271;59283;-75
2022/03/03 10:53:42;;;;;;;13.90;7.40;;;;;;;15.94;38.20;100253.91;105226;1271;71487;-74
2022/03/03 10:56:30;;;;;;;12.70;6.30;;;;;;;17.06;35.31;100252.89;105189;1272;67316;-73
2022/03/03 10:59:25;;;;;;;12.70;6.50;;;;;;;18.15;34.39;100252.02;105356;1271;71733;-75
2022/03/03 11:02:16;;;;;;;12.00;6.20;;;;;;;19.06;31.69;100242.26;104914;1272;59315;-75
2022/03/03 11:05:05;;;;;;;11.10;5.90;;;;;;;19.69;30.95;100239.65;105257;1271;60604;-76
2022/03/03 11:07:53;;;;;;;13.20;5.60;;;;;;;20.27;29.87;100233.34;105391;1271;71698;-75
2022/03/03 11:10:41;;;;;;;12.60;5.60;;;;;;;20.71;28.43;100227.46;104877;1271;66815;-75
2022/03/03 11:13:31;;;;;;;12.30;5.80;;;;;;;21.16;27.36;100230.58;105047;1274;73017;-75
2022/03/03 11:16:25;;;;;;;11.00;5.60;;;;;;;21.35;26.01;100232.86;105114;1271;59358;-76
2022/03/03 11:19:14;;;;;;;10.90;5.80;;;;;;;21.33;25.78;100232.51;105170;1271;60032;-75
2022/03/03 11:22:02;;;;;;;11.40;5.40;;;;;;;21.41;25.73;100236.40;105078;1271;72485;-76
2022/03/03 11:24:53;;;;;;;12.90;5.90;;;;;;;21.24;25.77;100238.36;105290;1271;68278;-75
2022/03/03 11:27:44;;;;;;;12.70;5.70;;;;;;;20.96;25.42;100237.01;104802;1271;72872;-75
2022/03/03 11:30:36;;;;;;;12.00;5.40;;;;;;;20.67;25.95;100238.59;104942;1271;59501;-75
2022/03/03 11:33:25;;;;;;;11.20;5.40;;;;;;;20.40;25.87;100232.80;105058;1270;60420;-74
2022/03/03 11:36:25;;;;;;;12.20;5.10;;;;;;;20.19;26.39;100227.92;105507;1271;71486;-75
2022/03/03 11:39:39;;;;;;;9.40;4.60;;;;;;;19.85;26.39;100228.20;105418;1271;66871;-75
2022/03/03 11:42:52;;;;;;;10.70;5.20;;;;;;;19.43;27.04;100230.89;105005;1271;71683;-76
2022/03/03 11:45:49;;;;;;;10.00;4.80;;;;;;;19.10;27.35;100230.30;104875;1271;59796;-74
2022/03/03 11:48:40;;;;;;;10.30;4.60;;;;;;;18.82;27.22;100229.33;105198;1271;60704;-77
2022/03/03 11:51:34;;;;;;;9.50;4.20;;;;;;;18.51;27.62;100234.15;105848;1271;72711;-75
2022/03/03 11:54:42;;;;;;;10.50;4.20;;;;;;;18.24;27.82;100234.58;105152;1271;67117;-75
2022/03/03 11:57:32;;;;;;;9.90;4.90;;;;;;;18.19;28.37;100229.66;105117;1271;73179;-76
2022/03/03 12:00:19;;;;;;;11.20;5.00;;;;;;;18.21;28.27;100229.90;104986;1271;59365;-75
2022/03/03 12:03:19;;;;;;;10.20;4.20;;;;;;;18.20;28.02;100226.23;104893;1271;60635;-75
2022/03/03 12:06:10;;;;;;;11.60;5.30;;;;;;;18.13;28.53;100221.60;105211;1271;71602;-75
2022/03/03 12:09:18;;;;;;;10.30;4.50;;;;;;;17.89;29.20;100226.96;105137;1271;67194;-75
2022/03/03 12:12:19;;;;;;;9.50;3.60;;;;;;;17.52;28.14;100224.20;105155;1271;73313;-75
2022/03/03 12:15:06;;;;;;;9.40;4.00;;;;;;;17.00;28.33;100222.55;105222;1272;59408;-74
2022/03/03 12:18:00;;;;;;;8.70;3.50;;;;;;;16.51;28.56;100218.10;105102;1272;59364;-74
2022/03/03 12:20:48;;;;;;;8.50;3.40;;;;;;;16.11;29.27;100213.16;105183;1274;71371;-75
2022/03/03 12:23:46;;;;;;;8.90;4.00;;;;;;;15.76;30.12;100211.84;104985;1274;67911;-74
2022/03/03 12:29:40;;;;;;;9.80;3.80;;;;;;;15.40;31.06;100210.00;105513;1271;59220;-76
2022/03/03 12:32:56;;;;;;;8.90;3.70;;;;;;;15.18;31.58;100209.20;105267;1271;59422;-73
2022/03/03 12:35:43;;;;;;;7.70;3.20;;;;;;;14.74;31.80;100211.84;104905;1271;71224;-74
2022/03/03 12:38:33;;;;;;;9.60;4.00;;;;;;;14.12;32.36;100211.61;104816;1272;66523;-74
2022/03/03 12:41:25;;;;;;;9.80;3.50;;;;;;;13.51;33.72;100214.63;105142;1271;71700;-75
2022/03/03 12:44:17;;;;;;;10.00;3.90;;;;;;;13.04;34.93;100216.16;105026;1274;59247;-73
2022/03/03 12:47:13;;;;;;;10.40;4.00;;;;;;;12.76;35.76;100213.34;105475;1271;59278;-72
2022/03/03 12:50:07;;;;;;;8.20;3.50;;;;;;;12.54;36.30;100208.22;104599;1277;72493;-75
2022/03/03 12:53:13;;;;;;;9.60;3.70;;;;;;;12.43;36.73;100210.06;104894;1277;67905;-74
2022/03/03 12:56:00;;;;;;;9.50;3.70;;;;;;;12.15;36.59;100215.59;105044;1276;73177;-74
2022/03/03 12:58:52;;;;;;;9.20;3.30;;;;;;;11.87;36.91;100215.13;104844;1277;59377;-74